Flight Briefing for CPX715

Departure Arrival
Miami International Airport (KMIA)
Click to view FAA NOTAMS
José María Córdova International Airport (SKRG)
Click to view FAA NOTAMS
Departure Time Arrival Time
0945 UTC 1315 UTC
Aircraft Distance
B767-300BDSF 1226nm
Departure METAR Arrival METAR
KMIA 230653Z 09014KT 10SM SCT030TCU BKN038 27/21 A3008 RMK AO2 SLP185 TCU E-SE T02670206 SKRG 230700Z VRB02KT 5000 -DZ BKN008CB BKN070 15/15 A3031 RERA NOSIG RMK CB/NE/E
Suggested Route
EONNS2 EONNS A509 URSUS UA301 UCA UG430 BEREX UG430 KILER UQ121 AKPEK AKPE1C


View recent IFR Routes data
Notes



Charts and Procedures

Charts for KMIA
No chart available
Charts for SKRG
No chart available

Windy.com Weather Map